Terminal Aerodrome Forecast
Issued by NWS

Home | Current Version | Previous Version | Text Only | Print | Product List | Glossary On
Versions: 1 2 3 4 5 6 7 8 9 10 11 12 13 14
000
FTUS43 KMPX 092118 AAA
TAFRWF
TAF AMD
KRWF 092118Z 0921/1018 27009KT P6SM SCT120
     FM100000 21007KT P6SM BKN100
     FM100600 28011KT P6SM BKN250
     FM100900 30012G18KT P6SM SCT025 BKN150=

USA.gov is the U.S. government's official web portal to all federal, state and local government web resources and services.